Time;durP1;ratioP1;P1;durP2;ratioP2;P2;SDS_P1;SDS_P2;PMS_P1;PMS_P2;Temp;Humidity;BMP_temperature;BMP_pressure;BME280_temperature;BME280_humidity;BME280_pressure;Samples;Min_cycle;Max_cycle;Signal;HPM_P1;HPM_P2
2022/01/25 00:09:49;;;;;;;12.50;8.30;;;;;;;3.46;95.05;102189.45;1756484;81;21031;-74
2022/01/25 00:33:34;;;;;;;8.87;6.17;;;;;;;3.38;94.76;102179.34;1756421;81;21175;-75
2022/01/25 00:36:04;;;;;;;8.80;5.92;;;;;;;3.37;94.85;102175.88;1756728;81;21464;-74
2022/01/25 00:38:31;;;;;;;;;;;;;;;3.34;94.81;102177.98;1759094;81;21002;-74
2022/01/25 00:40:59;;;;;;;9.50;5.80;;;;;;;3.33;94.68;102183.16;1756815;81;20172;-74
2022/01/25 00:43:27;;;;;;;8.77;5.70;;;;;;;3.30;94.72;102174.02;1756511;81;21309;-75
2022/01/25 00:45:59;;;;;;;7.33;5.00;;;;;;;3.30;94.81;102174.02;1756694;81;21115;-74
2022/01/25 00:56:26;;;;;;;8.30;6.13;;;;;;;3.32;95.06;102156.77;1756793;81;21540;-74
2022/01/25 00:58:53;;;;;;;8.57;5.60;;;;;;;3.32;94.92;102151.58;1755618;81;21910;-74
2022/01/25 01:01:22;;;;;;;10.90;5.80;;;;;;;3.28;94.84;102147.19;1756723;81;20994;-75
2022/01/25 01:03:49;;;;;;;9.67;6.37;;;;;;;3.29;94.97;102148.92;1756456;81;20991;-74
2022/01/25 01:06:17;;;;;;;8.20;5.73;;;;;;;3.29;94.88;102145.04;1756781;81;21480;-74
2022/01/25 01:08:45;;;;;;;8.73;6.00;;;;;;;3.27;94.82;102142.83;1756394;81;21140;-74
2022/01/25 01:11:21;;;;;;;8.20;5.70;;;;;;;3.28;95.00;102145.47;1756479;81;21962;-74
2022/01/25 01:41:29;;;;;;;10.80;7.07;;;;;;;3.29;95.03;102118.70;1756382;81;21022;-74
2022/01/25 01:43:40;;;;;;;13.03;7.50;;;;;;;3.30;94.95;102120.47;1752202;81;21913;-74
2022/01/25 01:48:59;;;;;;;10.50;7.43;;;;;;;3.25;94.96;102125.97;1756495;81;21026;-75
2022/01/25 01:51:32;;;;;;;9.93;6.27;;;;;;;3.27;95.09;102119.11;1756125;81;22067;-74
2022/01/25 01:54:09;;;;;;;9.30;6.20;;;;;;;3.28;94.96;102116.95;1756649;81;21026;-75
2022/01/25 01:56:39;;;;;;;8.97;5.63;;;;;;;3.23;94.47;102116.41;1756503;81;21006;-74
2022/01/25 01:59:10;;;;;;;8.80;6.10;;;;;;;3.19;94.52;102106.81;1756878;81;21487;-74
2022/01/25 02:01:39;;;;;;;9.67;6.70;;;;;;;3.18;94.57;102099.89;1756513;81;21269;-74
2022/01/25 02:04:09;;;;;;;10.03;7.10;;;;;;;3.19;94.67;102101.63;1756549;81;21098;-74
2022/01/25 02:06:36;;;;;;;10.27;7.00;;;;;;;3.16;94.56;102101.56;1756330;81;21056;-75
2022/01/25 02:09:06;;;;;;;9.73;6.13;;;;;;;3.16;94.82;102099.88;1756525;81;21018;-74
2022/01/25 02:11:33;;;;;;;9.55;5.95;;;;;;;3.18;95.04;102093.41;1756757;81;27087;-75
2022/01/25 02:14:05;;;;;;;9.10;6.67;;;;;;;3.22;95.24;102092.65;1756705;81;21034;-74
2022/01/25 02:16:59;;;;;;;11.23;7.20;;;;;;;3.20;95.02;102096.48;1755756;81;21193;-74
2022/01/25 02:24:47;;;;;;;9.67;5.93;;;;;;;3.22;95.27;102088.77;1756740;81;21425;-75
2022/01/25 02:27:15;;;;;;;11.17;6.43;;;;;;;3.26;95.49;102093.15;1756311;81;21014;-74
2022/01/25 02:29:43;;;;;;;8.73;6.10;;;;;;;3.28;95.52;102088.88;1756727;81;21113;-75
2022/01/25 02:32:12;;;;;;;8.53;6.10;;;;;;;3.28;95.40;102085.86;1756601;81;21272;-75
2022/01/25 02:34:39;;;;;;;9.73;6.20;;;;;;;3.29;95.45;102086.73;1756452;81;21038;-74
2022/01/25 02:37:11;;;;;;;10.47;5.90;;;;;;;3.27;95.35;102075.45;1756640;81;21010;-73
2022/01/25 02:39:41;;;;;;;7.63;5.47;;;;;;;3.27;95.46;102068.58;1756614;81;21033;-74
2022/01/25 02:42:11;;;;;;;9.03;6.22;;;;;;;3.31;95.73;102066.91;1756620;81;21185;-73
2022/01/25 02:44:41;;;;;;;9.83;5.50;;;;;;;3.33;95.72;102064.80;1756795;81;21058;-74
2022/01/25 02:49:56;;;;;;;8.70;5.47;;;;;;;3.32;95.52;102063.03;1756504;81;21460;-74
2022/01/25 02:52:26;;;;;;;9.57;5.97;;;;;;;3.33;95.64;102061.34;1756760;81;21006;-74
2022/01/25 02:54:53;;;;;;;9.93;6.73;;;;;;;3.32;95.62;102063.46;1756621;81;21488;-74
2022/01/25 02:57:21;;;;;;;11.97;7.03;;;;;;;3.33;95.71;102060.91;1756587;81;21113;-74
2022/01/25 02:59:48;;;;;;;10.73;6.57;;;;;;;3.33;95.67;102056.16;1756625;81;21026;-74
2022/01/25 03:02:17;;;;;;;11.00;6.37;;;;;;;3.32;95.76;102064.33;1756423;81;20963;-74
2022/01/25 03:04:44;;;;;;;8.23;5.33;;;;;;;3.33;95.65;102068.69;1756676;81;21014;-75
2022/01/25 03:07:11;;;;;;;11.00;6.37;;;;;;;3.31;95.62;102057.41;1756470;81;21812;-73
2022/01/25 03:09:40;;;;;;;9.00;6.03;;;;;;;3.33;95.73;102056.16;1758451;81;21010;-75
2022/01/25 03:12:11;;;;;;;9.00;5.73;;;;;;;3.32;95.64;102045.32;1764977;81;20982;-74
2022/01/25 03:14:57;;;;;;;11.30;7.53;;;;;;;3.32;95.64;102045.32;1765335;81;21005;-73
2022/01/25 03:17:10;;;;;;;10.82;7.20;;;;;;;3.30;95.69;102036.23;1761463;81;21045;-75
2022/01/25 03:22:17;;;;;;;9.10;5.77;;;;;;;3.31;95.75;102043.16;1765225;81;20975;-74
2022/01/25 03:27:40;;;;;;;10.43;6.40;;;;;;;3.31;95.92;102039.27;1742191;82;21034;-74
2022/01/25 03:30:08;;;;;;;10.67;7.03;;;;;;;3.34;96.04;102036.73;1742395;82;21074;-74
2022/01/25 03:32:35;;;;;;;9.33;6.20;;;;;;;3.34;95.87;102039.75;1711744;83;21117;-74
2022/01/25 03:35:03;;;;;;;10.17;6.60;;;;;;;3.33;95.87;102041.91;1742396;82;21022;-74
2022/01/25 03:37:30;;;;;;;9.43;6.03;;;;;;;3.32;95.84;102038.41;1711813;83;21011;-75
2022/01/25 03:39:58;;;;;;;11.50;6.63;;;;;;;3.31;95.86;102043.16;1742377;82;21531;-75
2022/01/25 03:42:25;;;;;;;8.70;5.40;;;;;;;3.32;95.91;102040.13;1711727;83;21046;-73
2022/01/25 03:44:53;;;;;;;10.20;6.27;;;;;;;3.32;95.91;102041.00;1741912;82;21138;-74
2022/01/25 03:47:30;;;;;;;9.27;6.07;;;;;;;3.31;95.82;102033.22;1742096;82;21001;-74
2022/01/25 03:49:52;;;;;;;11.77;6.67;;;;;;;3.30;95.83;102032.34;1740594;82;20999;-74
2022/01/25 03:52:32;;;;;;;10.18;6.00;;;;;;;3.28;95.83;102026.69;1711901;83;21043;-74
2022/01/25 03:54:55;;;;;;;9.80;6.33;;;;;;;3.30;96.01;102034.94;1741556;82;21468;-74
2022/01/25 03:57:22;;;;;;;10.30;5.80;;;;;;;3.30;95.94;102037.96;1711654;83;21115;-74
2022/01/25 03:59:49;;;;;;;9.77;6.20;;;;;;;3.31;96.07;102039.70;1742299;82;21070;-74
2022/01/25 04:02:16;;;;;;;8.23;5.53;;;;;;;3.31;96.05;102025.02;1711791;83;21054;-74
2022/01/25 04:04:45;;;;;;;9.73;5.20;;;;;;;3.31;95.96;102025.44;1742299;82;21014;-74
2022/01/25 04:07:14;;;;;;;9.30;5.60;;;;;;;3.31;96.01;102024.14;1711709;83;21578;-74
2022/01/25 04:09:41;;;;;;;9.10;5.80;;;;;;;3.29;95.94;102021.51;1742455;82;21244;-74
2022/01/25 04:12:09;;;;;;;8.23;5.53;;;;;;;3.28;95.87;102016.31;1711752;83;21086;-74
2022/01/25 04:14:36;;;;;;;10.57;6.23;;;;;;;3.30;95.99;102027.59;1742215;82;21471;-74
2022/01/25 04:17:07;;;;;;;7.20;5.50;;;;;;;3.31;96.15;102018.53;1711730;83;21030;-73
2022/01/25 04:25:13;;;;;;;9.23;6.13;;;;;;;3.36;96.19;102026.41;1742482;82;21018;-74
2022/01/25 04:27:32;;;;;;;10.07;5.70;;;;;;;3.37;96.22;102023.39;1714033;83;20988;-75
2022/01/25 04:30:00;;;;;;;7.87;5.00;;;;;;;3.36;96.21;102029.00;1707403;84;22017;-75
2022/01/25 04:32:40;;;;;;;10.23;5.70;;;;;;;3.34;96.16;102030.25;1707736;84;21284;-75
2022/01/25 04:35:25;;;;;;;7.90;5.07;;;;;;;3.35;96.23;102022.95;1706345;84;21150;-75
2022/01/25 04:51:49;;;;;;;7.97;5.70;;;;;;;3.28;96.14;102017.19;1707307;84;21004;-74
2022/01/25 04:54:26;;;;;;;8.17;5.67;;;;;;;3.28;96.30;102028.84;1706476;84;20995;-74
2022/01/25 04:57:03;;;;;;;8.90;5.60;;;;;;;3.29;96.20;102031.02;1707247;84;21031;-74
2022/01/25 05:02:14;;;;;;;10.30;5.80;;;;;;;3.26;96.15;102024.48;1707432;84;21151;-75
2022/01/25 05:04:43;;;;;;;9.10;6.23;;;;;;;3.27;96.16;102032.69;1707015;84;21048;-75
2022/01/25 05:07:24;;;;;;;8.90;5.53;;;;;;;3.27;96.11;102036.58;1706527;84;21625;-75
2022/01/25 05:09:38;;;;;;;9.40;6.20;;;;;;;3.26;96.12;102034.41;1704962;84;21034;-74
2022/01/25 05:12:09;;;;;;;15.90;8.80;;;;;;;3.29;96.33;102032.30;1707309;84;21034;-74
2022/01/25 05:14:47;;;;;;;10.63;6.05;;;;;;;3.30;96.34;102025.00;1707769;84;21207;-75
2022/01/25 05:17:10;;;;;;;23.43;11.27;;;;;;;3.30;96.16;102032.34;1705461;84;21000;-75
2022/01/25 05:22:25;;;;;;;50.90;25.03;;;;;;;3.30;96.31;102023.28;1707356;84;21035;-75
2022/01/25 05:24:50;;;;;;;17.87;10.60;;;;;;;3.29;96.10;102030.58;1707064;84;21028;-75
2022/01/25 05:27:20;;;;;;;19.60;9.90;;;;;;;3.30;96.23;102027.59;1725539;82;21970;-75
2022/01/25 05:29:47;;;;;;;10.57;6.67;;;;;;;3.30;96.21;102026.30;1739879;82;21086;-75
2022/01/25 05:32:14;;;;;;;22.30;10.97;;;;;;;3.29;96.18;102016.75;1739767;82;21003;-75
2022/01/25 05:34:42;;;;;;;24.70;11.93;;;;;;;3.29;96.27;102010.28;1739896;82;21039;-75
2022/01/25 05:37:09;;;;;;;32.50;14.47;;;;;;;3.28;96.22;102012.43;1739662;82;21030;-75
2022/01/25 05:39:38;;;;;;;13.57;7.57;;;;;;;3.27;96.27;102019.73;1739893;82;21951;-75
2022/01/25 05:42:45;;;;;;;10.97;6.20;;;;;;;3.28;96.32;102025.39;1739619;82;21068;-75
2022/01/25 05:45:16;;;;;;;12.70;7.67;;;;;;;3.26;96.25;102026.64;1736391;82;21468;-75
2022/01/25 05:47:30;;;;;;;14.60;7.93;;;;;;;3.23;96.17;102028.31;1736302;82;21031;-75
2022/01/25 05:49:59;;;;;;;15.03;7.23;;;;;;;3.23;96.26;102027.02;1739820;82;21014;-74
2022/01/25 05:52:27;;;;;;;12.60;6.90;;;;;;;3.23;96.34;102021.83;1739593;82;21971;-75
2022/01/25 05:54:54;;;;;;;61.43;38.50;;;;;;;3.23;96.42;102020.11;1739807;82;21026;-74
2022/01/25 05:57:21;;;;;;;39.90;17.50;;;;;;;3.22;96.23;102027.88;1739575;82;21026;-75
2022/01/25 05:59:48;;;;;;;28.77;13.23;;;;;;;3.11;95.65;102028.95;1739291;82;21045;-75
2022/01/25 06:02:18;;;;;;;29.33;14.57;;;;;;;3.02;95.40;102020.97;1738672;82;20993;-75
2022/01/25 06:04:48;;;;;;;23.40;10.93;;;;;;;2.94;95.24;102031.20;1738757;82;21092;-75
2022/01/25 06:07:15;;;;;;;14.47;7.33;;;;;;;2.86;95.15;102023.70;1738498;82;20898;-75
2022/01/25 06:09:42;;;;;;;11.63;5.67;;;;;;;2.79;95.08;102025.27;1738727;82;21017;-74
2022/01/25 06:12:11;;;;;;;35.20;14.93;;;;;;;2.74;95.33;102019.55;1738660;82;21033;-74
2022/01/25 06:14:38;;;;;;;38.27;16.73;;;;;;;2.72;95.32;102019.95;1738804;82;21806;-75
2022/01/25 06:17:06;;;;;;;29.40;13.13;;;;;;;2.68;95.27;102014.68;1738547;82;21139;-75
2022/01/25 06:19:33;;;;;;;28.57;12.17;;;;;;;2.64;95.23;102017.19;1738590;82;21399;-74
2022/01/25 06:22:00;;;;;;;35.43;16.03;;;;;;;2.59;95.15;102009.75;1743793;81;21416;-74
2022/01/25 06:24:27;;;;;;;37.83;17.03;;;;;;;2.53;95.06;102016.09;1726928;83;21071;-74
2022/01/25 06:26:54;;;;;;;38.37;18.13;;;;;;;2.49;95.24;102015.12;1728263;81;21078;-74
2022/01/25 06:29:21;;;;;;;36.33;16.10;;;;;;;2.50;95.38;102022.07;1713350;82;22017;-74
2022/01/25 06:31:48;;;;;;;19.30;9.53;;;;;;;2.48;95.28;102018.99;1721642;82;21523;-74
2022/01/25 06:34:16;;;;;;;16.17;8.43;;;;;;;2.43;95.22;102016.29;1724576;82;21072;-74
2022/01/25 06:36:43;;;;;;;32.43;16.53;;;;;;;2.40;95.32;102017.09;1739682;82;21027;-74
2022/01/25 06:39:10;;;;;;;21.77;10.87;;;;;;;2.40;95.39;102017.52;1740184;82;21064;-74
2022/01/25 06:41:38;;;;;;;16.03;8.13;;;;;;;2.39;95.33;102024.84;1740369;82;21290;-74
2022/01/25 06:44:06;;;;;;;18.03;8.87;;;;;;;2.35;95.36;102031.64;1739989;82;21044;-74
2022/01/25 06:46:32;;;;;;;12.07;7.17;;;;;;;2.35;95.47;102031.64;1740419;82;21508;-74
2022/01/25 06:48:59;;;;;;;14.53;8.73;;;;;;;2.36;95.58;102034.70;1740040;82;20964;-74
2022/01/25 06:51:29;;;;;;;11.07;6.97;;;;;;;2.37;95.67;102023.50;1740353;82;21513;-74
2022/01/25 06:53:56;;;;;;;8.57;6.23;;;;;;;2.41;95.92;102017.96;1740063;82;21144;-74
2022/01/25 06:56:23;;;;;;;9.03;5.83;;;;;;;2.42;95.81;102021.02;1740255;82;21514;-74
2022/01/25 06:58:50;;;;;;;8.30;5.60;;;;;;;2.43;95.80;102018.45;1740041;82;20990;-74
2022/01/25 07:01:17;;;;;;;7.10;4.80;;;;;;;2.44;95.89;102022.81;1740351;82;21015;-74
2022/01/25 07:03:45;;;;;;;8.53;5.40;;;;;;;2.44;95.76;102026.69;1740171;82;21036;-74
2022/01/25 07:06:12;;;;;;;12.63;7.03;;;;;;;2.43;95.80;102025.34;1740463;82;21884;-74
2022/01/25 07:08:41;;;;;;;11.90;7.03;;;;;;;2.43;95.79;102028.80;1739979;82;21020;-74
2022/01/25 07:11:09;;;;;;;10.38;6.00;;;;;;;2.44;95.96;102031.00;1729974;82;21094;-74
2022/01/25 07:13:36;;;;;;;8.77;5.47;;;;;;;2.46;95.95;102034.05;1725453;82;21065;-74
2022/01/25 07:16:03;;;;;;;7.43;5.20;;;;;;;2.45;95.88;102028.42;1736184;82;21047;-74
2022/01/25 07:18:30;;;;;;;7.27;4.73;;;;;;;2.45;95.87;102025.84;1732706;82;21136;-74
2022/01/25 07:20:57;;;;;;;9.00;5.30;;;;;;;2.45;95.98;102020.66;1730683;83;21028;-74
2022/01/25 07:23:24;;;;;;;15.00;9.27;;;;;;;2.49;96.03;102027.20;1730815;82;21012;-74
2022/01/25 07:25:51;;;;;;;9.27;6.17;;;;;;;2.51;96.11;102020.34;1731018;82;21032;-74
2022/01/25 07:28:18;;;;;;;7.37;4.93;;;;;;;2.51;96.00;102014.75;1751861;80;21026;-74
2022/01/25 07:30:45;;;;;;;7.53;5.47;;;;;;;2.51;95.92;102006.11;1732301;82;21134;-74
2022/01/25 07:33:12;;;;;;;8.97;5.73;;;;;;;2.50;95.86;102018.61;1732125;82;20980;-75
2022/01/25 07:35:40;;;;;;;13.13;7.00;;;;;;;2.48;95.87;102016.41;1732514;82;21497;-74
2022/01/25 07:38:07;;;;;;;9.93;6.50;;;;;;;2.48;95.89;102014.69;1732300;82;21135;-74
2022/01/25 07:40:36;;;;;;;9.97;6.27;;;;;;;2.49;95.96;102019.00;1732551;82;21495;-73
2022/01/25 07:43:04;;;;;;;10.83;6.47;;;;;;;2.49;96.06;102017.71;1732169;82;21921;-74
2022/01/25 07:45:35;;;;;;;11.60;7.80;;;;;;;2.50;96.06;102022.50;1732287;82;21070;-75
2022/01/25 07:48:09;;;;;;;9.20;6.00;;;;;;;2.51;96.06;102028.11;1707734;82;21000;-74
2022/01/25 07:50:38;;;;;;;13.13;7.60;;;;;;;2.47;95.76;102025.89;1732472;82;21071;-76
2022/01/25 07:53:05;;;;;;;10.00;6.87;;;;;;;2.44;95.93;102022.81;1732218;82;21004;-75
2022/01/25 07:55:32;;;;;;;11.03;7.10;;;;;;;2.45;95.95;102023.67;1732461;82;21205;-75
2022/01/25 07:57:59;;;;;;;15.00;9.40;;;;;;;2.45;95.92;102021.95;1732241;82;21012;-75
2022/01/25 08:00:26;;;;;;;12.10;8.03;;;;;;;2.48;96.01;102017.70;1732418;82;21492;-76
2022/01/25 08:02:53;;;;;;;15.40;10.67;;;;;;;2.46;95.90;102016.35;1732195;82;21023;-75
2022/01/25 08:05:24;;;;;;;17.37;10.47;;;;;;;2.49;96.06;102023.31;1738075;82;21681;-76
2022/01/25 08:07:51;;;;;;;19.15;11.48;;;;;;;2.49;95.96;102025.91;1768407;81;21216;-76
2022/01/25 08:10:18;;;;;;;28.07;16.03;;;;;;;2.49;95.96;102022.89;1768399;81;20984;-77
2022/01/25 08:12:45;;;;;;;23.40;14.27;;;;;;;2.47;95.76;102012.95;1768209;81;20996;-78
2022/01/25 08:15:13;;;;;;;18.33;11.93;;;;;;;2.48;95.79;102012.09;1768505;81;20995;-77
2022/01/25 08:17:40;;;;;;;22.20;12.33;;;;;;;2.45;95.60;102006.86;1768234;81;21527;-77
2022/01/25 08:20:07;;;;;;;26.37;12.47;;;;;;;2.44;95.64;102011.16;1761831;80;21043;-77
2022/01/25 08:22:34;;;;;;;29.53;17.37;;;;;;;2.45;95.60;102015.91;1748083;81;21384;-79
2022/01/25 08:25:03;;;;;;;19.53;12.37;;;;;;;2.44;95.67;102019.35;1743780;80;21533;-79
2022/01/25 08:27:31;;;;;;;17.30;10.43;;;;;;;2.47;95.63;102016.83;1737899;80;21138;-76
2022/01/25 08:29:58;;;;;;;16.43;10.97;;;;;;;2.47;95.62;102022.00;1735088;82;21031;-76
2022/01/25 08:32:25;;;;;;;21.63;11.77;;;;;;;2.48;95.50;102025.03;1734156;82;21214;-77
2022/01/25 08:34:52;;;;;;;17.43;9.87;;;;;;;2.49;95.45;102028.49;1738016;81;20976;-76
2022/01/25 08:37:19;;;;;;;21.07;11.30;;;;;;;2.49;95.51;102036.25;1739334;81;21539;-76
2022/01/25 08:39:46;;;;;;;16.07;10.00;;;;;;;2.50;95.45;102036.30;1739792;82;21455;-76
2022/01/25 08:42:13;;;;;;;18.60;10.43;;;;;;;2.50;95.36;102027.67;1739653;82;21002;-76
2022/01/25 08:44:39;;;;;;;16.57;9.10;;;;;;;2.51;95.26;102033.29;1739582;82;21186;-76
2022/01/25 08:47:08;;;;;;;16.47;8.93;;;;;;;2.50;95.17;102031.13;1739497;82;21026;-75
2022/01/25 08:49:36;;;;;;;15.20;8.10;;;;;;;2.54;95.28;102026.88;1741832;81;21523;-77
2022/01/25 08:52:04;;;;;;;15.57;9.77;;;;;;;2.54;95.14;102021.28;1705919;84;21475;-75
2022/01/25 08:54:32;;;;;;;13.27;8.50;;;;;;;2.57;95.18;102023.93;1738871;82;21022;-76
2022/01/25 08:57:00;;;;;;;15.53;9.37;;;;;;;2.61;95.12;102014.55;1752671;81;21993;-76
2022/01/25 08:59:28;;;;;;;18.30;9.07;;;;;;;2.62;94.98;102028.80;1739839;82;21387;-74
2022/01/25 09:01:55;;;;;;;17.53;8.43;;;;;;;2.64;94.97;102023.66;1741467;82;20983;-76
2022/01/25 09:04:22;;;;;;;14.57;9.10;;;;;;;2.67;95.05;102019.42;1772633;81;21074;-75
2022/01/25 09:06:49;;;;;;;17.30;9.70;;;;;;;2.73;95.12;102017.80;1772417;81;21636;-75
2022/01/25 09:09:17;;;;;;;14.73;8.63;;;;;;;2.74;95.01;102024.29;1772571;81;21183;-75
2022/01/25 09:11:44;;;;;;;15.40;9.23;;;;;;;2.78;94.97;102023.96;1772702;81;21024;-75
2022/01/25 09:14:13;;;;;;;16.83;8.63;;;;;;;2.84;95.16;102026.24;1772737;81;21012;-75
2022/01/25 09:16:40;;;;;;;15.23;7.90;;;;;;;2.90;95.09;102028.08;1773129;81;21043;-75
2022/01/25 09:19:08;;;;;;;17.00;7.83;;;;;;;2.96;95.12;102027.33;1772989;81;21031;-75
2022/01/25 09:21:36;;;;;;;16.73;9.67;;;;;;;3.00;94.94;102021.39;1772950;81;21181;-74
2022/01/25 09:24:04;;;;;;;16.67;9.30;;;;;;;3.02;94.89;102027.05;1772796;81;21036;-74
2022/01/25 09:26:32;;;;;;;18.67;10.27;;;;;;;3.03;94.84;102019.72;1773129;81;20955;-74
2022/01/25 09:28:59;;;;;;;15.77;8.73;;;;;;;3.10;94.90;102019.02;1760598;81;21092;-75
2022/01/25 09:31:27;;;;;;;22.90;9.93;;;;;;;3.16;94.92;102019.95;1755529;81;21456;-75
2022/01/25 09:33:55;;;;;;;26.33;11.60;;;;;;;3.19;94.81;102020.91;1755488;81;21526;-74
2022/01/25 09:36:24;;;;;;;22.37;9.80;;;;;;;3.28;95.08;102027.98;1755483;81;21020;-74
2022/01/25 09:38:56;;;;;;;15.30;8.30;;;;;;;3.34;94.86;102026.36;1755556;81;21033;-74
2022/01/25 09:41:24;;;;;;;18.60;9.37;;;;;;;3.40;94.79;102022.14;1755755;81;21527;-74
2022/01/25 09:43:51;;;;;;;13.73;7.77;;;;;;;3.44;94.73;102013.17;1755696;81;21068;-75
2022/01/25 09:46:18;;;;;;;11.10;6.90;;;;;;;3.46;94.50;102004.97;1755730;81;21105;-75
2022/01/25 09:48:45;;;;;;;11.70;5.77;;;;;;;3.51;94.56;102007.23;1755494;81;21002;-74
2022/01/25 09:51:12;;;;;;;14.17;6.87;;;;;;;3.55;94.39;102001.27;1755744;81;21091;-74
2022/01/25 09:53:40;;;;;;;10.57;5.97;;;;;;;3.59;94.40;101999.59;1755540;81;21048;-75
2022/01/25 09:56:09;;;;;;;10.40;5.93;;;;;;;3.64;94.33;101992.77;1755981;81;21063;-74
2022/01/25 09:58:36;;;;;;;10.63;5.63;;;;;;;3.65;94.20;101997.52;1755504;81;21240;-76
2022/01/25 10:01:05;;;;;;;10.80;6.47;;;;;;;3.67;94.27;101988.92;1755801;81;21104;-75
2022/01/25 10:03:39;;;;;;;11.60;7.20;;;;;;;3.71;94.17;101991.14;1755561;81;21017;-74
2022/01/25 10:06:19;;;;;;;9.13;6.00;;;;;;;3.77;94.34;101992.13;1755768;81;21009;-77
2022/01/25 10:08:47;;;;;;;11.53;6.67;;;;;;;3.86;94.25;101990.54;1755571;81;21076;-75
2022/01/25 10:11:17;;;;;;;10.87;6.33;;;;;;;3.89;93.99;101982.37;1755656;81;21046;-76
2022/01/25 10:13:51;;;;;;;10.60;6.70;;;;;;;3.90;93.91;101972.86;1755730;81;21045;-75
2022/01/25 10:16:24;;;;;;;14.07;7.50;;;;;;;3.93;93.74;101966.42;1755438;81;20997;-75
2022/01/25 10:19:10;;;;;;;11.50;6.70;;;;;;;3.94;93.53;101964.30;1754852;81;21005;-74
2022/01/25 10:21:48;;;;;;;8.83;6.33;;;;;;;4.01;93.62;101951.84;1755549;81;21139;-74
2022/01/25 10:24:20;;;;;;;9.80;6.37;;;;;;;4.13;93.10;101951.14;1755044;81;21417;-74
2022/01/25 10:26:55;;;;;;;11.10;6.60;;;;;;;4.27;92.99;101952.63;1754425;81;21036;-74
2022/01/25 10:29:26;;;;;;;7.33;5.27;;;;;;;4.44;93.15;101952.45;1755462;81;21025;-78
2022/01/25 10:32:02;;;;;;;10.00;5.90;;;;;;;4.60;92.81;101950.91;1755622;81;20957;-78
2022/01/25 10:34:41;;;;;;;9.53;6.07;;;;;;;4.73;92.62;101958.00;1755888;81;21044;-75
2022/01/25 10:37:11;;;;;;;9.03;5.90;;;;;;;4.91;92.61;101943.06;1755704;81;21110;-74
2022/01/25 10:39:43;;;;;;;8.27;5.50;;;;;;;5.08;92.28;101944.55;1755382;81;21554;-74
2022/01/25 10:42:20;;;;;;;8.93;5.47;;;;;;;5.18;92.12;101938.56;1755777;81;21080;-74
2022/01/25 10:44:56;;;;;;;7.73;5.07;;;;;;;5.29;91.86;101930.47;1755910;81;21463;-74
2022/01/25 10:47:50;;;;;;;8.67;5.53;;;;;;;5.45;91.84;101928.84;1755421;81;21075;-75
2022/01/25 10:50:34;;;;;;;10.33;6.43;;;;;;;5.54;91.22;101927.65;1755857;81;21105;-74
2022/01/25 10:53:15;;;;;;;8.43;5.20;;;;;;;5.57;90.75;101930.67;1755427;81;21476;-74
2022/01/25 10:55:55;;;;;;;8.83;5.40;;;;;;;5.56;90.35;101939.34;1755516;81;21083;-74
2022/01/25 10:58:20;;;;;;;9.10;6.00;;;;;;;5.62;90.27;101930.72;1754840;81;21032;-74
2022/01/25 11:00:51;;;;;;;7.87;5.80;;;;;;;5.77;90.72;101921.31;1755445;81;39272;-74
2022/01/25 11:03:38;;;;;;;6.70;5.03;;;;;;;5.88;90.17;101917.48;1755648;81;21112;-73
2022/01/25 11:06:18;;;;;;;6.67;5.03;;;;;;;5.80;89.17;101923.06;1754763;81;21108;-73
2022/01/25 11:08:50;;;;;;;8.37;5.80;;;;;;;5.88;89.73;101923.98;1755467;81;21040;-73
2022/01/25 11:11:28;;;;;;;7.93;5.77;;;;;;;5.90;89.33;101924.84;1755863;81;21028;-73
2022/01/25 11:14:00;;;;;;;9.60;5.43;;;;;;;5.77;89.12;101929.55;1755588;81;21465;-73
2022/01/25 11:16:25;;;;;;;9.47;5.77;;;;;;;5.84;89.54;101930.45;1755547;81;21062;-80
2022/01/25 11:18:52;;;;;;;10.33;6.27;;;;;;;5.77;89.31;101920.44;1755492;81;21076;-73
2022/01/25 11:21:21;;;;;;;9.30;5.93;;;;;;;5.58;89.17;101918.99;1755587;81;21028;-73
2022/01/25 11:23:50;;;;;;;9.33;6.00;;;;;;;5.53;89.28;101919.38;1755485;81;21040;-72
2022/01/25 11:26:17;;;;;;;12.03;7.03;;;;;;;5.44;89.27;101919.31;1755467;81;21048;-80
2022/01/25 11:28:45;;;;;;;11.00;6.67;;;;;;;5.31;89.12;101919.62;1761601;81;22130;-73
2022/01/25 11:31:20;;;;;;;13.43;7.77;;;;;;;5.23;89.21;101915.22;1772835;81;21028;-73
2022/01/25 11:33:50;;;;;;;15.23;7.87;;;;;;;5.12;89.22;101921.61;1772965;81;21489;-73
2022/01/25 11:36:17;;;;;;;12.57;7.57;;;;;;;4.99;89.24;101926.23;1772784;81;20993;-73
2022/01/25 11:38:48;;;;;;;8.33;5.80;;;;;;;4.89;89.40;101918.78;1772934;81;21074;-73
2022/01/25 11:41:20;;;;;;;8.13;5.63;;;;;;;4.79;89.39;101913.04;1772776;81;21132;-73
2022/01/25 11:44:07;;;;;;;10.63;6.83;;;;;;;4.75;89.59;101909.98;1773002;81;22099;-73
2022/01/25 11:46:37;;;;;;;9.90;6.07;;;;;;;4.66;89.55;101913.34;1711313;83;21000;-73
2022/01/25 11:49:08;;;;;;;11.25;7.03;;;;;;;4.54;89.50;101915.34;1711574;83;21781;-73
2022/01/25 11:51:35;;;;;;;10.57;7.03;;;;;;;4.46;89.48;101917.87;1711282;83;21388;-72
2022/01/25 11:54:04;;;;;;;11.43;7.40;;;;;;;4.39;89.61;101921.66;1711575;83;21861;-74
2022/01/25 11:56:32;;;;;;;12.17;7.37;;;;;;;4.32;89.46;101915.94;1711534;83;21469;-73
2022/01/25 11:59:00;;;;;;;11.03;7.30;;;;;;;4.27;89.61;101915.00;1711423;83;21573;-73
2022/01/25 12:01:28;;;;;;;8.90;5.70;;;;;;;4.22;89.77;101917.55;1711577;83;21052;-82
2022/01/25 12:04:10;;;;;;;7.70;5.17;;;;;;;4.20;89.98;101911.03;1711561;83;21079;-76
2022/01/25 12:06:45;;;;;;;10.27;6.30;;;;;;;4.17;90.06;101908.40;1711496;83;21104;-80
2022/01/25 12:09:42;;;;;;;8.03;5.33;;;;;;;4.18;90.15;101909.27;1710865;83;20979;-73
2022/01/25 12:12:07;;;;;;;8.07;4.90;;;;;;;4.17;90.09;101912.72;1711717;83;21080;-73
2022/01/25 12:14:50;;;;;;;9.97;6.10;;;;;;;4.17;90.26;101913.59;1711496;83;21020;-73
2022/01/25 12:17:23;;;;;;;10.03;5.60;;;;;;;4.13;90.12;101914.41;1711829;83;21106;-73
2022/01/25 12:20:03;;;;;;;10.17;5.37;;;;;;;4.11;90.14;101903.56;1711575;83;21145;-73
2022/01/25 12:22:41;;;;;;;8.37;5.53;;;;;;;4.09;90.18;101900.94;1743292;81;21492;-73
2022/01/25 12:25:37;;;;;;;8.83;6.00;;;;;;;4.06;90.13;101902.62;1772282;81;21027;-73
2022/01/25 12:28:01;;;;;;;9.83;5.07;;;;;;;4.05;90.17;101905.65;1769179;81;21024;-73
2022/01/25 12:30:39;;;;;;;7.50;4.73;;;;;;;4.06;90.22;101900.03;1772980;81;21008;-74
2022/01/25 12:33:22;;;;;;;8.63;4.37;;;;;;;4.01;90.02;101892.17;1773167;81;21937;-73
2022/01/25 12:36:01;;;;;;;8.00;4.40;;;;;;;4.00;90.05;101890.00;1772855;81;21533;-73
2022/01/25 12:38:47;;;;;;;8.20;4.83;;;;;;;4.00;90.21;101892.60;1773074;81;21591;-74
2022/01/25 12:41:28;;;;;;;9.83;5.20;;;;;;;4.02;90.34;101898.69;1772029;81;21032;-79
2022/01/25 12:43:57;;;;;;;10.93;6.33;;;;;;;4.01;90.17;101890.44;1773341;81;21031;-72
2022/01/25 12:46:41;;;;;;;;;;;;;;;3.99;90.15;101888.28;1775479;81;21105;-72
2022/01/25 12:49:17;;;;;;;8.20;4.60;;;;;;;3.98;90.21;101887.81;1771459;81;21705;-72
2022/01/25 12:51:45;;;;;;;9.83;6.37;;;;;;;3.99;90.47;101893.86;1772879;81;21023;-73
2022/01/25 12:54:15;;;;;;;15.70;8.03;;;;;;;3.96;90.58;101887.34;1747771;81;21557;-76
2022/01/25 12:56:47;;;;;;;9.03;5.87;;;;;;;3.97;90.64;101885.21;1773107;81;21155;-79
2022/01/25 12:59:19;;;;;;;9.43;5.40;;;;;;;3.92;90.56;101887.73;1773482;81;21917;-73
2022/01/25 13:01:47;;;;;;;9.43;5.20;;;;;;;3.90;90.70;101879.48;1772907;81;21446;-72
2022/01/25 13:04:15;;;;;;;9.00;5.50;;;;;;;3.89;90.64;101884.23;1773097;81;21068;-72
2022/01/25 13:06:48;;;;;;;9.33;5.17;;;;;;;3.86;90.67;101880.30;1772829;81;21513;-73
2022/01/25 13:14:49;;;;;;;19.67;9.33;;;;;;;3.84;90.88;101876.38;1773167;81;20383;-72
2022/01/25 13:17:20;;;;;;;12.90;7.90;;;;;;;3.89;91.25;101876.45;1772483;81;21528;-75
2022/01/25 13:20:00;;;;;;;12.70;6.77;;;;;;;3.95;91.21;101879.98;1773115;81;21012;-73
2022/01/25 13:22:34;;;;;;;9.77;5.63;;;;;;;3.95;91.18;101875.23;1773056;81;21706;-72
2022/01/25 13:25:31;;;;;;;10.00;5.57;;;;;;;3.95;90.98;101875.23;1772725;81;21191;-72
2022/01/25 13:27:59;;;;;;;10.23;5.63;;;;;;;3.96;91.19;101878.26;1772210;81;20989;-72
2022/01/25 13:30:45;;;;;;;12.70;7.07;;;;;;;3.98;91.32;101881.32;1759009;81;21083;-72
2022/01/25 13:33:21;;;;;;;15.00;8.33;;;;;;;4.02;91.29;101874.48;1755671;81;21009;-71
2022/01/25 13:35:56;;;;;;;13.97;7.20;;;;;;;4.03;91.21;101876.20;1755548;81;21560;-72